sensor_id;sensor_type;location;lat;lon;timestamp;P1;durP1;ratioP1;P2;durP2;ratioP2
37655;SDS011;23498;50.958;3.124;2023-11-19T00:01:40;28.17;;;4.78;;
37655;SDS011;23498;50.958;3.124;2023-11-19T00:04:06;21.98;;;5.03;;
37655;SDS011;23498;50.958;3.124;2023-11-19T00:06:33;35.10;;;4.93;;
37655;SDS011;23498;50.958;3.124;2023-11-19T00:08:59;30.42;;;5.20;;
37655;SDS011;23498;50.958;3.124;2023-11-19T00:11:25;24.80;;;4.72;;
37655;SDS011;23498;50.958;3.124;2023-11-19T00:13:51;29.35;;;4.93;;
37655;SDS011;23498;50.958;3.124;2023-11-19T00:16:17;29.75;;;5.30;;
37655;SDS011;23498;50.958;3.124;2023-11-19T00:18:43;32.83;;;5.82;;
37655;SDS011;23498;50.958;3.124;2023-11-19T00:21:10;27.50;;;5.15;;
37655;SDS011;23498;50.958;3.124;2023-11-19T00:23:36;30.38;;;5.40;;
37655;SDS011;23498;50.958;3.124;2023-11-19T00:26:03;27.52;;;5.70;;
37655;SDS011;23498;50.958;3.124;2023-11-19T00:28:33;34.63;;;6.65;;
37655;SDS011;23498;50.958;3.124;2023-11-19T00:31:20;35.65;;;5.88;;
37655;SDS011;23498;50.958;3.124;2023-11-19T00:34:21;31.13;;;5.20;;
37655;SDS011;23498;50.958;3.124;2023-11-19T00:37:07;41.05;;;5.78;;
37655;SDS011;23498;50.958;3.124;2023-11-19T00:40:07;37.83;;;5.55;;
37655;SDS011;23498;50.958;3.124;2023-11-19T00:42:41;22.02;;;3.92;;
37655;SDS011;23498;50.958;3.124;2023-11-19T00:45:30;31.60;;;5.13;;
37655;SDS011;23498;50.958;3.124;2023-11-19T00:48:49;25.95;;;4.78;;
37655;SDS011;23498;50.958;3.124;2023-11-19T00:51:39;26.60;;;5.10;;
37655;SDS011;23498;50.958;3.124;2023-11-19T00:54:59;35.75;;;5.80;;
37655;SDS011;23498;50.958;3.124;2023-11-19T00:58:07;38.00;;;6.03;;
37655;SDS011;23498;50.958;3.124;2023-11-19T01:00:58;30.38;;;5.47;;
37655;SDS011;23498;50.958;3.124;2023-11-19T01:03:26;33.50;;;5.95;;
37655;SDS011;23498;50.958;3.124;2023-11-19T01:06:26;36.75;;;6.28;;
37655;SDS011;23498;50.958;3.124;2023-11-19T01:09:02;33.90;;;5.45;;
37655;SDS011;23498;50.958;3.124;2023-11-19T01:11:36;29.35;;;5.15;;
37655;SDS011;23498;50.958;3.124;2023-11-19T01:14:27;45.50;;;5.78;;
37655;SDS011;23498;50.958;3.124;2023-11-19T01:16:55;24.35;;;4.97;;
37655;SDS011;23498;50.958;3.124;2023-11-19T01:19:43;32.08;;;6.38;;
37655;SDS011;23498;50.958;3.124;2023-11-19T01:22:14;29.27;;;5.03;;
37655;SDS011;23498;50.958;3.124;2023-11-19T01:25:21;34.97;;;5.35;;
37655;SDS011;23498;50.958;3.124;2023-11-19T01:28:27;32.42;;;6.25;;
37655;SDS011;23498;50.958;3.124;2023-11-19T01:31:19;28.90;;;5.50;;
37655;SDS011;23498;50.958;3.124;2023-11-19T01:36:55;34.50;;;4.72;;
37655;SDS011;23498;50.958;3.124;2023-11-19T01:40:01;27.60;;;5.25;;
37655;SDS011;23498;50.958;3.124;2023-11-19T01:42:51;30.75;;;4.60;;
37655;SDS011;23498;50.958;3.124;2023-11-19T01:45:27;23.70;;;3.90;;
37655;SDS011;23498;50.958;3.124;2023-11-19T01:48:06;24.65;;;4.97;;
37655;SDS011;23498;50.958;3.124;2023-11-19T01:50:36;28.17;;;5.40;;
37655;SDS011;23498;50.958;3.124;2023-11-19T01:53:39;33.40;;;5.25;;
37655;SDS011;23498;50.958;3.124;2023-11-19T01:56:43;34.92;;;5.80;;
37655;SDS011;23498;50.958;3.124;2023-11-19T01:59:51;36.78;;;6.00;;
37655;SDS011;23498;50.958;3.124;2023-11-19T02:02:40;29.38;;;5.88;;
37655;SDS011;23498;50.958;3.124;2023-11-19T02:05:42;34.30;;;5.88;;
37655;SDS011;23498;50.958;3.124;2023-11-19T02:08:19;30.52;;;6.82;;
37655;SDS011;23498;50.958;3.124;2023-11-19T02:13:44;36.72;;;5.05;;
37655;SDS011;23498;50.958;3.124;2023-11-19T02:16:13;26.67;;;4.53;;
37655;SDS011;23498;50.958;3.124;2023-11-19T02:18:43;27.80;;;5.53;;
37655;SDS011;23498;50.958;3.124;2023-11-19T02:22:04;29.50;;;5.30;;
37655;SDS011;23498;50.958;3.124;2023-11-19T02:24:58;34.50;;;5.75;;
37655;SDS011;23498;50.958;3.124;2023-11-19T02:27:48;32.53;;;5.97;;
37655;SDS011;23498;50.958;3.124;2023-11-19T02:30:54;31.70;;;6.30;;
37655;SDS011;23498;50.958;3.124;2023-11-19T02:44:45;29.25;;;5.50;;
37655;SDS011;23498;50.958;3.124;2023-11-19T02:47:38;32.95;;;5.43;;
37655;SDS011;23498;50.958;3.124;2023-11-19T02:50:40;32.38;;;4.88;;
37655;SDS011;23498;50.958;3.124;2023-11-19T02:53:19;33.67;;;6.55;;
37655;SDS011;23498;50.958;3.124;2023-11-19T03:38:34;37.83;;;5.47;;
37655;SDS011;23498;50.958;3.124;2023-11-19T03:41:25;25.27;;;4.78;;
37655;SDS011;23498;50.958;3.124;2023-11-19T03:43:51;32.80;;;5.65;;
37655;SDS011;23498;50.958;3.124;2023-11-19T03:46:36;28.20;;;4.85;;
37655;SDS011;23498;50.958;3.124;2023-11-19T03:49:02;31.88;;;5.63;;
37655;SDS011;23498;50.958;3.124;2023-11-19T03:51:39;30.02;;;4.90;;
37655;SDS011;23498;50.958;3.124;2023-11-19T03:54:48;26.80;;;4.53;;
37655;SDS011;23498;50.958;3.124;2023-11-19T03:58:05;27.33;;;4.88;;
37655;SDS011;23498;50.958;3.124;2023-11-19T05:26:53;34.38;;;6.40;;
37655;SDS011;23498;50.958;3.124;2023-11-19T05:32:52;42.90;;;5.63;;
37655;SDS011;23498;50.958;3.124;2023-11-19T05:35:47;42.53;;;5.75;;
37655;SDS011;23498;50.958;3.124;2023-11-19T05:41:13;28.65;;;4.35;;
37655;SDS011;23498;50.958;3.124;2023-11-19T05:43:46;32.50;;;5.00;;
37655;SDS011;23498;50.958;3.124;2023-11-19T06:06:43;27.48;;;4.63;;
37655;SDS011;23498;50.958;3.124;2023-11-19T06:09:35;33.28;;;4.53;;
37655;SDS011;23498;50.958;3.124;2023-11-19T06:15:09;31.42;;;5.80;;
37655;SDS011;23498;50.958;3.124;2023-11-19T07:54:40;31.15;;;6.22;;
37655;SDS011;23498;50.958;3.124;2023-11-19T07:57:30;33.58;;;6.03;;
37655;SDS011;23498;50.958;3.124;2023-11-19T08:00:03;41.25;;;6.82;;
37655;SDS011;23498;50.958;3.124;2023-11-19T08:02:29;35.75;;;5.80;;
37655;SDS011;23498;50.958;3.124;2023-11-19T08:08:01;34.97;;;5.53;;
37655;SDS011;23498;50.958;3.124;2023-11-19T08:10:53;29.75;;;5.53;;
37655;SDS011;23498;50.958;3.124;2023-11-19T08:13:30;33.60;;;5.28;;
37655;SDS011;23498;50.958;3.124;2023-11-19T08:16:14;32.50;;;5.32;;
37655;SDS011;23498;50.958;3.124;2023-11-19T09:19:22;28.20;;;4.72;;
37655;SDS011;23498;50.958;3.124;2023-11-19T09:21:48;33.35;;;5.43;;
37655;SDS011;23498;50.958;3.124;2023-11-19T09:24:14;30.77;;;5.32;;
37655;SDS011;23498;50.958;3.124;2023-11-19T09:27:04;33.90;;;5.03;;
37655;SDS011;23498;50.958;3.124;2023-11-19T09:36:04;27.98;;;5.63;;
37655;SDS011;23498;50.958;3.124;2023-11-19T09:52:14;28.20;;;5.13;;
37655;SDS011;23498;50.958;3.124;2023-11-19T09:54:42;35.60;;;6.03;;
37655;SDS011;23498;50.958;3.124;2023-11-19T09:57:08;32.28;;;5.35;;
37655;SDS011;23498;50.958;3.124;2023-11-19T09:59:36;31.02;;;5.40;;
37655;SDS011;23498;50.958;3.124;2023-11-19T10:02:04;32.42;;;5.45;;
37655;SDS011;23498;50.958;3.124;2023-11-19T10:04:30;32.50;;;5.60;;
37655;SDS011;23498;50.958;3.124;2023-11-19T10:06:59;39.25;;;6.93;;
37655;SDS011;23498;50.958;3.124;2023-11-19T10:09:25;35.05;;;5.70;;
37655;SDS011;23498;50.958;3.124;2023-11-19T10:11:52;37.85;;;5.60;;
37655;SDS011;23498;50.958;3.124;2023-11-19T10:14:19;39.38;;;5.82;;
37655;SDS011;23498;50.958;3.124;2023-11-19T10:16:48;33.30;;;6.38;;
37655;SDS011;23498;50.958;3.124;2023-11-19T10:19:23;39.05;;;5.75;;
37655;SDS011;23498;50.958;3.124;2023-11-19T10:21:49;38.92;;;5.90;;
37655;SDS011;23498;50.958;3.124;2023-11-19T10:24:31;31.55;;;5.35;;
37655;SDS011;23498;50.958;3.124;2023-11-19T10:27:27;33.35;;;5.47;;
37655;SDS011;23498;50.958;3.124;2023-11-19T10:29:54;36.72;;;5.82;;
37655;SDS011;23498;50.958;3.124;2023-11-19T10:32:28;33.40;;;6.53;;
37655;SDS011;23498;50.958;3.124;2023-11-19T10:35:15;36.10;;;5.65;;
37655;SDS011;23498;50.958;3.124;2023-11-19T10:37:55;43.72;;;5.65;;
37655;SDS011;23498;50.958;3.124;2023-11-19T10:40:21;35.03;;;5.28;;
37655;SDS011;23498;50.958;3.124;2023-11-19T10:42:47;33.75;;;5.05;;
37655;SDS011;23498;50.958;3.124;2023-11-19T10:45:23;39.53;;;6.38;;
37655;SDS011;23498;50.958;3.124;2023-11-19T10:47:50;36.75;;;6.43;;
37655;SDS011;23498;50.958;3.124;2023-11-19T10:50:24;32.65;;;4.80;;
37655;SDS011;23498;50.958;3.124;2023-11-19T10:52:50;32.33;;;5.03;;
37655;SDS011;23498;50.958;3.124;2023-11-19T10:55:23;28.67;;;5.40;;
37655;SDS011;23498;50.958;3.124;2023-11-19T10:58:07;26.35;;;4.90;;
37655;SDS011;23498;50.958;3.124;2023-11-19T11:00:38;24.33;;;6.25;;
37655;SDS011;23498;50.958;3.124;2023-11-19T11:03:12;24.42;;;5.18;;
37655;SDS011;23498;50.958;3.124;2023-11-19T11:06:02;31.08;;;4.95;;
37655;SDS011;23498;50.958;3.124;2023-11-19T11:08:27;33.28;;;5.60;;
37655;SDS011;23498;50.958;3.124;2023-11-19T11:10:54;34.88;;;5.03;;
37655;SDS011;23498;50.958;3.124;2023-11-19T11:13:24;30.80;;;5.28;;
37655;SDS011;23498;50.958;3.124;2023-11-19T11:15:53;22.55;;;4.57;;
37655;SDS011;23498;50.958;3.124;2023-11-19T11:18:21;32.17;;;4.80;;
37655;SDS011;23498;50.958;3.124;2023-11-19T11:20:49;30.77;;;5.18;;
37655;SDS011;23498;50.958;3.124;2023-11-19T11:28:52;24.63;;;4.68;;
37655;SDS011;23498;50.958;3.124;2023-11-19T11:36:31;43.33;;;5.80;;
37655;SDS011;23498;50.958;3.124;2023-11-19T11:39:00;23.55;;;3.88;;
37655;SDS011;23498;50.958;3.124;2023-11-19T11:44:58;34.67;;;5.35;;
37655;SDS011;23498;50.958;3.124;2023-11-19T11:50:26;30.80;;;4.50;;
37655;SDS011;23498;50.958;3.124;2023-11-19T11:55:33;20.60;;;3.85;;
37655;SDS011;23498;50.958;3.124;2023-11-19T11:58:10;24.98;;;4.90;;
37655;SDS011;23498;50.958;3.124;2023-11-19T12:00:37;28.63;;;4.63;;
37655;SDS011;23498;50.958;3.124;2023-11-19T12:03:04;31.50;;;5.43;;
37655;SDS011;23498;50.958;3.124;2023-11-19T12:05:41;27.93;;;5.03;;
37655;SDS011;23498;50.958;3.124;2023-11-19T12:08:12;22.02;;;3.75;;
37655;SDS011;23498;50.958;3.124;2023-11-19T12:10:48;22.30;;;3.92;;
37655;SDS011;23498;50.958;3.124;2023-11-19T12:13:15;15.15;;;2.92;;
37655;SDS011;23498;50.958;3.124;2023-11-19T12:18:30;24.85;;;4.13;;
37655;SDS011;23498;50.958;3.124;2023-11-19T12:20:57;19.80;;;4.60;;
37655;SDS011;23498;50.958;3.124;2023-11-19T12:23:29;28.48;;;4.45;;
37655;SDS011;23498;50.958;3.124;2023-11-19T12:25:57;24.88;;;4.20;;
37655;SDS011;23498;50.958;3.124;2023-11-19T12:28:24;25.50;;;3.58;;
37655;SDS011;23498;50.958;3.124;2023-11-19T12:31:06;21.73;;;3.97;;
37655;SDS011;23498;50.958;3.124;2023-11-19T12:33:51;24.80;;;4.72;;
37655;SDS011;23498;50.958;3.124;2023-11-19T12:36:18;22.65;;;3.45;;
37655;SDS011;23498;50.958;3.124;2023-11-19T12:38:44;22.17;;;4.22;;
37655;SDS011;23498;50.958;3.124;2023-11-19T12:41:11;18.38;;;3.33;;
37655;SDS011;23498;50.958;3.124;2023-11-19T12:43:38;22.05;;;3.78;;
37655;SDS011;23498;50.958;3.124;2023-11-19T12:46:17;21.15;;;3.17;;
37655;SDS011;23498;50.958;3.124;2023-11-19T12:48:49;26.27;;;6.15;;
37655;SDS011;23498;50.958;3.124;2023-11-19T12:51:16;24.10;;;3.75;;
37655;SDS011;23498;50.958;3.124;2023-11-19T13:37:34;21.65;;;4.90;;
37655;SDS011;23498;50.958;3.124;2023-11-19T14:10:09;31.33;;;4.70;;
37655;SDS011;23498;50.958;3.124;2023-11-19T14:12:39;25.48;;;4.53;;
37655;SDS011;23498;50.958;3.124;2023-11-19T14:15:05;31.75;;;4.65;;
37655;SDS011;23498;50.958;3.124;2023-11-19T14:17:33;29.15;;;5.10;;
37655;SDS011;23498;50.958;3.124;2023-11-19T14:19:59;30.38;;;4.50;;
37655;SDS011;23498;50.958;3.124;2023-11-19T14:22:25;26.48;;;5.30;;
37655;SDS011;23498;50.958;3.124;2023-11-19T14:24:52;25.15;;;4.10;;
37655;SDS011;23498;50.958;3.124;2023-11-19T14:27:18;29.83;;;4.70;;
37655;SDS011;23498;50.958;3.124;2023-11-19T14:29:44;39.22;;;5.32;;
37655;SDS011;23498;50.958;3.124;2023-11-19T14:32:12;31.02;;;5.43;;
37655;SDS011;23498;50.958;3.124;2023-11-19T14:34:43;26.98;;;5.15;;
37655;SDS011;23498;50.958;3.124;2023-11-19T14:37:10;29.90;;;4.60;;
37655;SDS011;23498;50.958;3.124;2023-11-19T14:39:36;29.63;;;5.30;;
37655;SDS011;23498;50.958;3.124;2023-11-19T14:42:02;26.42;;;4.80;;
37655;SDS011;23498;50.958;3.124;2023-11-19T14:44:30;27.05;;;5.18;;
37655;SDS011;23498;50.958;3.124;2023-11-19T14:46:56;19.77;;;3.13;;
37655;SDS011;23498;50.958;3.124;2023-11-19T14:49:23;24.90;;;4.10;;
37655;SDS011;23498;50.958;3.124;2023-11-19T14:51:50;24.98;;;3.70;;
37655;SDS011;23498;50.958;3.124;2023-11-19T14:54:16;23.02;;;4.57;;
37655;SDS011;23498;50.958;3.124;2023-11-19T14:56:42;23.60;;;3.80;;
37655;SDS011;23498;50.958;3.124;2023-11-19T14:59:08;27.70;;;4.55;;
37655;SDS011;23498;50.958;3.124;2023-11-19T15:01:34;25.40;;;3.97;;
37655;SDS011;23498;50.958;3.124;2023-11-19T15:04:00;19.80;;;3.17;;
37655;SDS011;23498;50.958;3.124;2023-11-19T15:06:26;27.90;;;4.97;;
37655;SDS011;23498;50.958;3.124;2023-11-19T15:08:53;23.02;;;4.43;;
37655;SDS011;23498;50.958;3.124;2023-11-19T15:11:20;25.85;;;4.28;;
37655;SDS011;23498;50.958;3.124;2023-11-19T15:13:46;25.27;;;4.28;;
37655;SDS011;23498;50.958;3.124;2023-11-19T15:16:12;27.45;;;4.43;;
37655;SDS011;23498;50.958;3.124;2023-11-19T15:18:39;23.08;;;3.75;;
37655;SDS011;23498;50.958;3.124;2023-11-19T15:21:06;23.60;;;3.67;;
37655;SDS011;23498;50.958;3.124;2023-11-19T15:23:33;16.48;;;3.03;;
37655;SDS011;23498;50.958;3.124;2023-11-19T15:25:59;25.48;;;4.05;;
37655;SDS011;23498;50.958;3.124;2023-11-19T15:28:25;23.27;;;4.38;;
37655;SDS011;23498;50.958;3.124;2023-11-19T15:30:51;17.98;;;3.25;;
37655;SDS011;23498;50.958;3.124;2023-11-19T15:33:17;25.73;;;6.32;;
37655;SDS011;23498;50.958;3.124;2023-11-19T15:35:43;20.23;;;3.95;;
37655;SDS011;23498;50.958;3.124;2023-11-19T15:38:09;21.48;;;3.22;;
37655;SDS011;23498;50.958;3.124;2023-11-19T15:40:35;19.17;;;3.15;;
37655;SDS011;23498;50.958;3.124;2023-11-19T15:43:02;21.10;;;3.35;;
37655;SDS011;23498;50.958;3.124;2023-11-19T15:45:29;19.55;;;3.50;;
37655;SDS011;23498;50.958;3.124;2023-11-19T15:47:55;22.20;;;3.80;;
37655;SDS011;23498;50.958;3.124;2023-11-19T15:50:21;15.70;;;3.15;;
37655;SDS011;23498;50.958;3.124;2023-11-19T15:52:47;16.08;;;3.38;;
37655;SDS011;23498;50.958;3.124;2023-11-19T15:55:13;18.10;;;3.03;;
37655;SDS011;23498;50.958;3.124;2023-11-19T15:57:39;18.23;;;3.42;;
37655;SDS011;23498;50.958;3.124;2023-11-19T16:00:05;16.90;;;3.00;;
37655;SDS011;23498;50.958;3.124;2023-11-19T16:02:35;20.15;;;4.00;;
37655;SDS011;23498;50.958;3.124;2023-11-19T16:05:01;20.70;;;3.22;;
37655;SDS011;23498;50.958;3.124;2023-11-19T16:07:30;15.82;;;2.80;;
37655;SDS011;23498;50.958;3.124;2023-11-19T16:09:56;18.13;;;3.03;;
37655;SDS011;23498;50.958;3.124;2023-11-19T16:12:22;21.08;;;3.63;;
37655;SDS011;23498;50.958;3.124;2023-11-19T16:14:48;19.63;;;3.65;;
37655;SDS011;23498;50.958;3.124;2023-11-19T16:17:14;23.00;;;2.92;;
37655;SDS011;23498;50.958;3.124;2023-11-19T16:19:40;22.50;;;4.30;;
37655;SDS011;23498;50.958;3.124;2023-11-19T16:22:08;17.52;;;3.40;;
37655;SDS011;23498;50.958;3.124;2023-11-19T16:24:37;19.45;;;3.83;;
37655;SDS011;23498;50.958;3.124;2023-11-19T16:27:03;23.10;;;4.07;;
37655;SDS011;23498;50.958;3.124;2023-11-19T16:29:30;18.73;;;3.25;;
37655;SDS011;23498;50.958;3.124;2023-11-19T16:31:56;21.35;;;4.10;;
37655;SDS011;23498;50.958;3.124;2023-11-19T16:34:22;21.75;;;3.13;;
37655;SDS011;23498;50.958;3.124;2023-11-19T16:36:48;17.40;;;3.15;;
37655;SDS011;23498;50.958;3.124;2023-11-19T16:39:16;17.58;;;3.60;;
37655;SDS011;23498;50.958;3.124;2023-11-19T16:41:43;16.55;;;3.15;;
37655;SDS011;23498;50.958;3.124;2023-11-19T16:44:09;16.52;;;2.95;;
37655;SDS011;23498;50.958;3.124;2023-11-19T16:46:36;17.38;;;3.08;;
37655;SDS011;23498;50.958;3.124;2023-11-19T16:49:45;11.68;;;2.95;;
37655;SDS011;23498;50.958;3.124;2023-11-19T16:51:52;17.80;;;3.33;;
37655;SDS011;23498;50.958;3.124;2023-11-19T16:54:30;16.50;;;3.10;;
37655;SDS011;23498;50.958;3.124;2023-11-19T16:59:22;16.48;;;3.03;;
37655;SDS011;23498;50.958;3.124;2023-11-19T17:01:48;23.48;;;3.65;;
37655;SDS011;23498;50.958;3.124;2023-11-19T17:04:16;19.33;;;3.50;;
37655;SDS011;23498;50.958;3.124;2023-11-19T17:06:42;13.73;;;2.70;;
37655;SDS011;23498;50.958;3.124;2023-11-19T17:09:12;17.35;;;2.95;;
37655;SDS011;23498;50.958;3.124;2023-11-19T17:11:39;19.98;;;3.17;;
37655;SDS011;23498;50.958;3.124;2023-11-19T17:14:09;14.90;;;3.00;;
37655;SDS011;23498;50.958;3.124;2023-11-19T17:16:35;24.05;;;3.00;;
37655;SDS011;23498;50.958;3.124;2023-11-19T17:19:05;17.42;;;2.85;;
37655;SDS011;23498;50.958;3.124;2023-11-19T17:21:31;16.17;;;3.08;;
37655;SDS011;23498;50.958;3.124;2023-11-19T17:23:57;20.50;;;2.67;;
37655;SDS011;23498;50.958;3.124;2023-11-19T17:26:23;14.38;;;2.85;;
37655;SDS011;23498;50.958;3.124;2023-11-19T17:29:16;17.75;;;3.15;;
37655;SDS011;23498;50.958;3.124;2023-11-19T17:31:46;16.23;;;3.40;;
37655;SDS011;23498;50.958;3.124;2023-11-19T17:34:12;13.43;;;2.83;;
37655;SDS011;23498;50.958;3.124;2023-11-19T17:36:38;16.42;;;3.80;;
37655;SDS011;23498;50.958;3.124;2023-11-19T17:39:07;18.05;;;3.08;;
37655;SDS011;23498;50.958;3.124;2023-11-19T17:41:35;17.65;;;3.25;;
37655;SDS011;23498;50.958;3.124;2023-11-19T17:44:06;19.42;;;3.55;;
37655;SDS011;23498;50.958;3.124;2023-11-19T17:46:44;22.98;;;3.85;;
37655;SDS011;23498;50.958;3.124;2023-11-19T17:49:14;30.73;;;4.07;;
37655;SDS011;23498;50.958;3.124;2023-11-19T17:52:03;20.48;;;4.32;;
37655;SDS011;23498;50.958;3.124;2023-11-19T17:54:41;17.05;;;2.67;;
37655;SDS011;23498;50.958;3.124;2023-11-19T17:57:52;16.60;;;3.05;;
37655;SDS011;23498;50.958;3.124;2023-11-19T18:00:18;16.45;;;2.90;;
37655;SDS011;23498;50.958;3.124;2023-11-19T18:02:46;17.77;;;3.28;;
37655;SDS011;23498;50.958;3.124;2023-11-19T18:05:21;21.25;;;3.85;;
37655;SDS011;23498;50.958;3.124;2023-11-19T18:07:50;20.42;;;3.28;;
37655;SDS011;23498;50.958;3.124;2023-11-19T18:10:19;14.57;;;2.53;;
37655;SDS011;23498;50.958;3.124;2023-11-19T18:13:25;17.40;;;3.05;;
37655;SDS011;23498;50.958;3.124;2023-11-19T18:15:56;15.93;;;2.90;;
37655;SDS011;23498;50.958;3.124;2023-11-19T18:18:22;20.73;;;3.63;;
37655;SDS011;23498;50.958;3.124;2023-11-19T18:20:52;20.92;;;4.15;;
37655;SDS011;23498;50.958;3.124;2023-11-19T18:23:18;17.73;;;3.35;;
37655;SDS011;23498;50.958;3.124;2023-11-19T18:31:24;16.52;;;3.30;;
37655;SDS011;23498;50.958;3.124;2023-11-19T18:33:55;19.08;;;3.13;;
37655;SDS011;23498;50.958;3.124;2023-11-19T18:45:22;19.00;;;3.08;;
37655;SDS011;23498;50.958;3.124;2023-11-19T18:47:48;22.13;;;3.45;;
37655;SDS011;23498;50.958;3.124;2023-11-19T18:50:17;12.10;;;2.60;;
37655;SDS011;23498;50.958;3.124;2023-11-19T18:52:46;14.57;;;2.45;;
37655;SDS011;23498;50.958;3.124;2023-11-19T18:55:12;13.73;;;2.38;;
37655;SDS011;23498;50.958;3.124;2023-11-19T18:57:41;15.90;;;2.55;;
37655;SDS011;23498;50.958;3.124;2023-11-19T19:00:08;17.83;;;3.00;;
37655;SDS011;23498;50.958;3.124;2023-11-19T19:02:38;17.65;;;2.25;;
37655;SDS011;23498;50.958;3.124;2023-11-19T19:05:04;13.98;;;2.70;;
37655;SDS011;23498;50.958;3.124;2023-11-19T19:07:30;20.25;;;3.15;;
37655;SDS011;23498;50.958;3.124;2023-11-19T19:09:56;13.18;;;2.97;;
37655;SDS011;23498;50.958;3.124;2023-11-19T19:12:24;14.48;;;2.58;;
37655;SDS011;23498;50.958;3.124;2023-11-19T19:14:50;15.30;;;3.92;;
37655;SDS011;23498;50.958;3.124;2023-11-19T19:17:17;11.75;;;2.60;;
37655;SDS011;23498;50.958;3.124;2023-11-19T19:19:43;10.55;;;2.75;;
37655;SDS011;23498;50.958;3.124;2023-11-19T19:22:09;13.90;;;2.75;;
37655;SDS011;23498;50.958;3.124;2023-11-19T19:24:35;14.85;;;3.08;;
37655;SDS011;23498;50.958;3.124;2023-11-19T19:27:06;12.88;;;2.63;;
37655;SDS011;23498;50.958;3.124;2023-11-19T19:29:42;18.85;;;3.03;;
37655;SDS011;23498;50.958;3.124;2023-11-19T20:20:40;13.93;;;2.40;;
37655;SDS011;23498;50.958;3.124;2023-11-19T20:26:06;16.17;;;2.33;;
37655;SDS011;23498;50.958;3.124;2023-11-19T20:29:06;15.35;;;3.20;;
37655;SDS011;23498;50.958;3.124;2023-11-19T20:31:40;21.15;;;3.20;;
37655;SDS011;23498;50.958;3.124;2023-11-19T20:34:11;14.55;;;2.58;;
37655;SDS011;23498;50.958;3.124;2023-11-19T20:36:40;20.00;;;4.05;;
37655;SDS011;23498;50.958;3.124;2023-11-19T20:39:06;13.55;;;2.42;;
37655;SDS011;23498;50.958;3.124;2023-11-19T20:41:32;18.20;;;3.90;;
37655;SDS011;23498;50.958;3.124;2023-11-19T20:44:01;16.23;;;3.22;;
37655;SDS011;23498;50.958;3.124;2023-11-19T20:46:27;15.27;;;2.90;;
37655;SDS011;23498;50.958;3.124;2023-11-19T20:48:56;19.52;;;3.40;;
37655;SDS011;23498;50.958;3.124;2023-11-19T21:35:11;14.55;;;3.08;;
37655;SDS011;23498;50.958;3.124;2023-11-19T21:37:37;16.85;;;2.53;;
37655;SDS011;23498;50.958;3.124;2023-11-19T21:40:06;15.70;;;2.90;;
37655;SDS011;23498;50.958;3.124;2023-11-19T21:42:39;20.30;;;3.60;;
37655;SDS011;23498;50.958;3.124;2023-11-19T21:45:34;15.25;;;2.42;;
37655;SDS011;23498;50.958;3.124;2023-11-19T21:48:09;5.38;;;1.40;;
37655;SDS011;23498;50.958;3.124;2023-11-19T21:50:37;11.95;;;2.50;;
37655;SDS011;23498;50.958;3.124;2023-11-19T21:55:46;10.13;;;2.15;;
37655;SDS011;23498;50.958;3.124;2023-11-19T21:58:12;6.95;;;2.13;;
37655;SDS011;23498;50.958;3.124;2023-11-19T22:00:38;13.45;;;2.45;;
37655;SDS011;23498;50.958;3.124;2023-11-19T22:03:04;13.43;;;2.67;;
37655;SDS011;23498;50.958;3.124;2023-11-19T22:05:30;12.80;;;2.30;;
37655;SDS011;23498;50.958;3.124;2023-11-19T22:07:56;16.20;;;2.70;;
37655;SDS011;23498;50.958;3.124;2023-11-19T22:10:22;18.85;;;3.47;;
37655;SDS011;23498;50.958;3.124;2023-11-19T22:12:48;17.65;;;3.55;;
37655;SDS011;23498;50.958;3.124;2023-11-19T22:15:14;20.50;;;3.42;;
37655;SDS011;23498;50.958;3.124;2023-11-19T22:17:40;23.75;;;4.32;;
37655;SDS011;23498;50.958;3.124;2023-11-19T22:20:06;16.92;;;3.83;;
37655;SDS011;23498;50.958;3.124;2023-11-19T22:22:32;28.13;;;4.15;;
37655;SDS011;23498;50.958;3.124;2023-11-19T22:24:59;20.38;;;2.95;;
37655;SDS011;23498;50.958;3.124;2023-11-19T22:27:26;18.33;;;3.58;;
37655;SDS011;23498;50.958;3.124;2023-11-19T22:29:53;19.65;;;3.65;;
37655;SDS011;23498;50.958;3.124;2023-11-19T22:32:20;20.25;;;3.20;;
37655;SDS011;23498;50.958;3.124;2023-11-19T22:34:46;23.02;;;3.72;;
37655;SDS011;23498;50.958;3.124;2023-11-19T22:37:13;19.38;;;3.17;;
37655;SDS011;23498;50.958;3.124;2023-11-19T22:39:39;25.45;;;3.25;;
37655;SDS011;23498;50.958;3.124;2023-11-19T22:42:05;25.83;;;3.55;;
37655;SDS011;23498;50.958;3.124;2023-11-19T22:44:51;18.52;;;3.15;;
37655;SDS011;23498;50.958;3.124;2023-11-19T22:47:17;18.17;;;2.90;;
37655;SDS011;23498;50.958;3.124;2023-11-19T22:49:58;18.50;;;3.30;;
37655;SDS011;23498;50.958;3.124;2023-11-19T22:52:24;20.05;;;3.25;;
37655;SDS011;23498;50.958;3.124;2023-11-19T22:54:53;25.35;;;3.95;;
37655;SDS011;23498;50.958;3.124;2023-11-19T22:57:20;24.25;;;4.43;;
37655;SDS011;23498;50.958;3.124;2023-11-19T22:59:52;20.95;;;3.30;;
37655;SDS011;23498;50.958;3.124;2023-11-19T23:02:24;21.35;;;3.42;;
37655;SDS011;23498;50.958;3.124;2023-11-19T23:04:51;19.40;;;2.85;;
37655;SDS011;23498;50.958;3.124;2023-11-19T23:07:20;23.35;;;3.53;;
37655;SDS011;23498;50.958;3.124;2023-11-19T23:09:59;20.15;;;3.40;;
37655;SDS011;23498;50.958;3.124;2023-11-19T23:12:25;25.98;;;3.25;;
37655;SDS011;23498;50.958;3.124;2023-11-19T23:14:54;21.38;;;3.28;;
37655;SDS011;23498;50.958;3.124;2023-11-19T23:17:25;25.45;;;4.15;;
37655;SDS011;23498;50.958;3.124;2023-11-19T23:19:53;16.83;;;2.80;;
37655;SDS011;23498;50.958;3.124;2023-11-19T23:22:20;23.73;;;3.25;;
37655;SDS011;23498;50.958;3.124;2023-11-19T23:24:48;20.77;;;3.28;;
37655;SDS011;23498;50.958;3.124;2023-11-19T23:27:15;18.30;;;2.78;;
37655;SDS011;23498;50.958;3.124;2023-11-19T23:29:44;23.95;;;3.10;;
37655;SDS011;23498;50.958;3.124;2023-11-19T23:32:11;16.30;;;2.78;;
37655;SDS011;23498;50.958;3.124;2023-11-19T23:34:37;17.77;;;3.03;;
37655;SDS011;23498;50.958;3.124;2023-11-19T23:37:04;19.73;;;2.75;;
37655;SDS011;23498;50.958;3.124;2023-11-19T23:39:33;19.13;;;3.30;;
37655;SDS011;23498;50.958;3.124;2023-11-19T23:41:59;21.55;;;3.20;;
37655;SDS011;23498;50.958;3.124;2023-11-19T23:44:25;16.42;;;3.03;;
37655;SDS011;23498;50.958;3.124;2023-11-19T23:46:51;17.13;;;2.55;;
37655;SDS011;23498;50.958;3.124;2023-11-19T23:49:17;23.55;;;3.22;;
37655;SDS011;23498;50.958;3.124;2023-11-19T23:51:43;18.17;;;3.28;;
37655;SDS011;23498;50.958;3.124;2023-11-19T23:54:10;21.73;;;3.10;;
37655;SDS011;23498;50.958;3.124;2023-11-19T23:56:36;24.27;;;2.95;;
37655;SDS011;23498;50.958;3.124;2023-11-19T23:59:02;13.55;;;3.03;;
